sensor_id;sensor_type;location;lat;lon;timestamp;pressure;altitude;pressure_sealevel;temperature;humidity
19736;BME280;32064;49.310;8.646;2023-03-20T00:00:34;100782.19;;;13.80;71.05
19736;BME280;32064;49.310;8.646;2023-03-20T00:03:00;100789.03;;;13.82;71.86
19736;BME280;32064;49.310;8.646;2023-03-20T00:05:26;100792.78;;;13.80;71.08
19736;BME280;32064;49.310;8.646;2023-03-20T00:07:53;100790.00;;;13.81;71.21
19736;BME280;32064;49.310;8.646;2023-03-20T00:10:20;100795.75;;;13.75;72.35
19736;BME280;32064;49.310;8.646;2023-03-20T00:12:47;100794.69;;;13.78;72.07
19736;BME280;32064;49.310;8.646;2023-03-20T00:15:26;100790.22;;;13.78;72.19
19736;BME280;32064;49.310;8.646;2023-03-20T00:17:52;100787.97;;;13.74;71.79
19736;BME280;32064;49.310;8.646;2023-03-20T00:20:18;100798.28;;;13.77;71.85
19736;BME280;32064;49.310;8.646;2023-03-20T00:22:43;100792.16;;;13.76;72.35
19736;BME280;32064;49.310;8.646;2023-03-20T00:25:20;100797.47;;;13.76;72.06
19736;BME280;32064;49.310;8.646;2023-03-20T00:27:46;100797.91;;;13.81;71.59
19736;BME280;32064;49.310;8.646;2023-03-20T00:30:38;100790.38;;;13.77;72.08
19736;BME280;32064;49.310;8.646;2023-03-20T00:33:07;100786.63;;;13.79;72.04
19736;BME280;32064;49.310;8.646;2023-03-20T00:35:34;100795.16;;;13.83;71.91
19736;BME280;32064;49.310;8.646;2023-03-20T00:37:59;100793.50;;;13.82;71.88
19736;BME280;32064;49.310;8.646;2023-03-20T00:40:30;100803.22;;;13.81;72.59
19736;BME280;32064;49.310;8.646;2023-03-20T00:43:00;100794.94;;;13.86;70.97
19736;BME280;32064;49.310;8.646;2023-03-20T00:45:27;100796.84;;;13.84;71.52
19736;BME280;32064;49.310;8.646;2023-03-20T00:47:53;100791.09;;;13.79;71.71
19736;BME280;32064;49.310;8.646;2023-03-20T00:50:22;100798.16;;;13.78;71.58
19736;BME280;32064;49.310;8.646;2023-03-20T00:52:49;100800.09;;;13.76;72.42
19736;BME280;32064;49.310;8.646;2023-03-20T00:55:17;100794.19;;;13.84;72.63
19736;BME280;32064;49.310;8.646;2023-03-20T00:57:46;100796.00;;;13.83;72.53
19736;BME280;32064;49.310;8.646;2023-03-20T01:03:00;100801.19;;;13.85;71.49
19736;BME280;32064;49.310;8.646;2023-03-20T01:05:27;100797.47;;;13.87;72.25
19736;BME280;32064;49.310;8.646;2023-03-20T01:07:53;100794.94;;;13.86;71.63
19736;BME280;32064;49.310;8.646;2023-03-20T01:10:19;100797.56;;;13.86;71.67
19736;BME280;32064;49.310;8.646;2023-03-20T01:12:45;100797.56;;;13.86;71.50
19736;BME280;32064;49.310;8.646;2023-03-20T01:15:31;100789.16;;;13.81;72.46
19736;BME280;32064;49.310;8.646;2023-03-20T01:17:57;100789.88;;;13.83;71.54
19736;BME280;32064;49.310;8.646;2023-03-20T01:20:25;100793.50;;;13.82;72.08
19736;BME280;32064;49.310;8.646;2023-03-20T01:22:51;100792.88;;;13.78;71.74
19736;BME280;32064;49.310;8.646;2023-03-20T01:25:17;100787.81;;;13.75;72.75
19736;BME280;32064;49.310;8.646;2023-03-20T01:27:49;100793.13;;;13.75;71.90
19736;BME280;32064;49.310;8.646;2023-03-20T01:30:21;100793.00;;;13.77;71.99
19736;BME280;32064;49.310;8.646;2023-03-20T01:32:47;100796.97;;;13.71;72.06
19736;BME280;32064;49.310;8.646;2023-03-20T01:35:14;100788.06;;;13.72;72.28
19736;BME280;32064;49.310;8.646;2023-03-20T01:37:41;100799.47;;;13.73;72.96
19736;BME280;32064;49.310;8.646;2023-03-20T01:40:18;100806.47;;;13.74;71.91
19736;BME280;32064;49.310;8.646;2023-03-20T01:42:47;100802.03;;;13.74;71.65
19736;BME280;32064;49.310;8.646;2023-03-20T01:45:18;100806.72;;;13.70;72.82
19736;BME280;32064;49.310;8.646;2023-03-20T01:47:46;100809.13;;;13.74;72.33
19736;BME280;32064;49.310;8.646;2023-03-20T01:50:31;100814.63;;;13.70;72.09
19736;BME280;32064;49.310;8.646;2023-03-20T01:53:02;100814.88;;;13.67;71.87
19736;BME280;32064;49.310;8.646;2023-03-20T01:55:28;100813.66;;;13.72;72.50
19736;BME280;32064;49.310;8.646;2023-03-20T01:57:56;100816.88;;;13.64;72.75
19736;BME280;32064;49.310;8.646;2023-03-20T02:00:25;100819.19;;;13.68;71.80
19736;BME280;32064;49.310;8.646;2023-03-20T02:02:52;100822.69;;;13.69;72.44
19736;BME280;32064;49.310;8.646;2023-03-20T02:05:19;100820.03;;;13.69;71.92
19736;BME280;32064;49.310;8.646;2023-03-20T02:07:58;100827.00;;;13.70;71.75
19736;BME280;32064;49.310;8.646;2023-03-20T02:10:26;100829.53;;;13.72;72.18
19736;BME280;32064;49.310;8.646;2023-03-20T02:12:53;100824.25;;;13.72;72.35
19736;BME280;32064;49.310;8.646;2023-03-20T02:15:19;100823.50;;;13.69;72.20
19736;BME280;32064;49.310;8.646;2023-03-20T02:17:44;100828.56;;;13.73;72.62
19736;BME280;32064;49.310;8.646;2023-03-20T02:25:42;100817.84;;;13.63;72.71
19736;BME280;32064;49.310;8.646;2023-03-20T02:42:55;100822.25;;;13.40;73.21
19736;BME280;32064;49.310;8.646;2023-03-20T02:45:47;100823.91;;;13.41;72.75
19736;BME280;32064;49.310;8.646;2023-03-20T02:51:19;100827.56;;;13.51;73.17
19736;BME280;32064;49.310;8.646;2023-03-20T02:54:32;100824.53;;;13.44;72.91
19736;BME280;32064;49.310;8.646;2023-03-20T02:57:01;100830.44;;;13.48;72.53
19736;BME280;32064;49.310;8.646;2023-03-20T03:01:57;100817.09;;;13.50;72.49
19736;BME280;32064;49.310;8.646;2023-03-20T03:04:26;100821.28;;;13.41;72.54
19736;BME280;32064;49.310;8.646;2023-03-20T03:06:55;100819.47;;;13.41;72.89
19736;BME280;32064;49.310;8.646;2023-03-20T03:09:27;100823.59;;;13.45;73.90
19736;BME280;32064;49.310;8.646;2023-03-20T03:11:59;100819.47;;;13.41;73.50
19736;BME280;32064;49.310;8.646;2023-03-20T03:14:37;100824.66;;;13.43;73.49
19736;BME280;32064;49.310;8.646;2023-03-20T03:17:05;100831.75;;;13.42;72.86
19736;BME280;32064;49.310;8.646;2023-03-20T03:19:34;100828.75;;;13.47;74.00
19736;BME280;32064;49.310;8.646;2023-03-20T03:22:01;100829.47;;;13.49;73.71
19736;BME280;32064;49.310;8.646;2023-03-20T03:24:31;100829.81;;;13.44;73.61
19736;BME280;32064;49.310;8.646;2023-03-20T03:26:58;100836.91;;;13.44;73.24
19736;BME280;32064;49.310;8.646;2023-03-20T03:29:30;100829.94;;;13.43;73.12
19736;BME280;32064;49.310;8.646;2023-03-20T03:32:00;100836.66;;;13.47;73.83
19736;BME280;32064;49.310;8.646;2023-03-20T03:34:27;100832.44;;;13.44;73.36
19736;BME280;32064;49.310;8.646;2023-03-20T03:39:38;100831.63;;;13.44;73.91
19736;BME280;32064;49.310;8.646;2023-03-20T03:47:23;100833.56;;;13.42;72.82
19736;BME280;32064;49.310;8.646;2023-03-20T03:49:57;100828.28;;;13.42;73.25
19736;BME280;32064;49.310;8.646;2023-03-20T03:52:24;100825.00;;;13.38;73.44
19736;BME280;32064;49.310;8.646;2023-03-20T03:54:56;100820.91;;;13.34;73.57
19736;BME280;32064;49.310;8.646;2023-03-20T03:57:44;100819.19;;;13.33;73.59
19736;BME280;32064;49.310;8.646;2023-03-20T04:00:13;100821.75;;;13.35;73.10
19736;BME280;32064;49.310;8.646;2023-03-20T04:02:43;100824.47;;;13.33;73.99
19736;BME280;32064;49.310;8.646;2023-03-20T04:05:10;100827.13;;;13.33;73.31
19736;BME280;32064;49.310;8.646;2023-03-20T04:07:37;100821.97;;;13.32;73.44
19736;BME280;32064;49.310;8.646;2023-03-20T04:10:04;100826.19;;;13.34;74.22
19736;BME280;32064;49.310;8.646;2023-03-20T04:12:35;100828.34;;;13.29;74.48
19736;BME280;32064;49.310;8.646;2023-03-20T04:15:02;100829.06;;;13.31;73.83
19736;BME280;32064;49.310;8.646;2023-03-20T04:17:28;100838.56;;;13.34;73.81
19736;BME280;32064;49.310;8.646;2023-03-20T04:19:54;100843.94;;;13.32;73.95
19736;BME280;32064;49.310;8.646;2023-03-20T04:22:19;100851.03;;;13.32;74.54
19736;BME280;32064;49.310;8.646;2023-03-20T04:24:44;100848.50;;;13.30;74.43
19736;BME280;32064;49.310;8.646;2023-03-20T04:27:10;100854.53;;;13.32;74.84
19736;BME280;32064;49.310;8.646;2023-03-20T04:29:35;100857.78;;;13.36;74.50
19736;BME280;32064;49.310;8.646;2023-03-20T04:32:01;100859.47;;;13.37;74.92
19736;BME280;32064;49.310;8.646;2023-03-20T04:34:27;100869.69;;;13.41;73.29
19736;BME280;32064;49.310;8.646;2023-03-20T04:36:52;100864.53;;;13.40;73.70
19736;BME280;32064;49.310;8.646;2023-03-20T04:39:17;100865.47;;;13.39;73.60
19736;BME280;32064;49.310;8.646;2023-03-20T04:41:43;100867.91;;;13.42;74.53
19736;BME280;32064;49.310;8.646;2023-03-20T04:44:08;100876.69;;;13.42;73.66
19736;BME280;32064;49.310;8.646;2023-03-20T04:46:33;100873.63;;;13.36;74.47
19736;BME280;32064;49.310;8.646;2023-03-20T04:48:59;100860.31;;;13.37;74.38
19736;BME280;32064;49.310;8.646;2023-03-20T04:51:24;100865.59;;;13.37;73.78
19736;BME280;32064;49.310;8.646;2023-03-20T04:53:49;100859.56;;;13.35;75.06
19736;BME280;32064;49.310;8.646;2023-03-20T04:56:15;100858.75;;;13.35;75.04
19736;BME280;32064;49.310;8.646;2023-03-20T04:58:40;100853.22;;;13.38;74.55
19736;BME280;32064;49.310;8.646;2023-03-20T05:01:06;100856.72;;;13.38;73.98
19736;BME280;32064;49.310;8.646;2023-03-20T05:03:31;100856.09;;;13.35;74.48
19736;BME280;32064;49.310;8.646;2023-03-20T05:05:57;100856.34;;;13.32;74.26
19736;BME280;32064;49.310;8.646;2023-03-20T05:08:23;100854.53;;;13.32;74.16
19736;BME280;32064;49.310;8.646;2023-03-20T05:10:48;100855.38;;;13.33;74.94
19736;BME280;32064;49.310;8.646;2023-03-20T05:13:14;100870.50;;;13.31;75.34
19736;BME280;32064;49.310;8.646;2023-03-20T05:15:39;100867.56;;;13.22;75.49
19736;BME280;32064;49.310;8.646;2023-03-20T05:18:05;100879.19;;;13.20;75.34
19736;BME280;32064;49.310;8.646;2023-03-20T05:20:30;100876.78;;;13.17;75.01
19736;BME280;32064;49.310;8.646;2023-03-20T05:22:56;100879.50;;;13.15;75.81
19736;BME280;32064;49.310;8.646;2023-03-20T05:25:21;100877.28;;;13.22;75.18
19736;BME280;32064;49.310;8.646;2023-03-20T05:27:47;100876.31;;;13.23;74.82
19736;BME280;32064;49.310;8.646;2023-03-20T05:30:13;100867.66;;;13.21;74.54
19736;BME280;32064;49.310;8.646;2023-03-20T05:32:38;100868.63;;;13.20;74.91
19736;BME280;32064;49.310;8.646;2023-03-20T05:35:05;100879.69;;;13.25;74.78
19736;BME280;32064;49.310;8.646;2023-03-20T05:37:31;100882.56;;;13.22;75.44
19736;BME280;32064;49.310;8.646;2023-03-20T05:39:56;100885.53;;;13.17;75.55
19736;BME280;32064;49.310;8.646;2023-03-20T05:42:22;100889.03;;;13.18;75.67
19736;BME280;32064;49.310;8.646;2023-03-20T05:44:47;100894.06;;;13.21;75.35
19736;BME280;32064;49.310;8.646;2023-03-20T05:47:13;100890.28;;;13.25;76.01
19736;BME280;32064;49.310;8.646;2023-03-20T05:49:38;100891.13;;;13.25;75.12
19736;BME280;32064;49.310;8.646;2023-03-20T05:52:03;100886.69;;;13.26;75.97
19736;BME280;32064;49.310;8.646;2023-03-20T05:54:29;100890.78;;;13.30;74.97
19736;BME280;32064;49.310;8.646;2023-03-20T05:56:54;100878.31;;;13.32;74.88
19736;BME280;32064;49.310;8.646;2023-03-20T05:59:20;100877.25;;;13.35;75.81
19736;BME280;32064;49.310;8.646;2023-03-20T06:01:45;100876.41;;;13.34;76.17
19736;BME280;32064;49.310;8.646;2023-03-20T06:04:11;100880.72;;;13.35;75.91
19736;BME280;32064;49.310;8.646;2023-03-20T06:06:36;100886.75;;;13.37;75.67
19736;BME280;32064;49.310;8.646;2023-03-20T06:09:03;100875.72;;;13.43;75.40
19736;BME280;32064;49.310;8.646;2023-03-20T06:11:28;100869.59;;;13.43;75.02
19736;BME280;32064;49.310;8.646;2023-03-20T06:13:54;100871.03;;;13.47;75.40
19736;BME280;32064;49.310;8.646;2023-03-20T06:16:20;100876.81;;;13.52;74.45
19736;BME280;32064;49.310;8.646;2023-03-20T06:18:46;100880.72;;;13.59;75.23
19736;BME280;32064;49.310;8.646;2023-03-20T06:21:11;100885.16;;;13.59;75.52
19736;BME280;32064;49.310;8.646;2023-03-20T06:23:37;100891.38;;;13.58;75.15
19736;BME280;32064;49.310;8.646;2023-03-20T06:26:03;100898.16;;;13.62;74.54
19736;BME280;32064;49.310;8.646;2023-03-20T06:28:29;100907.09;;;13.48;75.08
19736;BME280;32064;49.310;8.646;2023-03-20T06:30:54;100908.03;;;13.47;75.55
19736;BME280;32064;49.310;8.646;2023-03-20T06:33:19;100911.31;;;13.51;75.55
19736;BME280;32064;49.310;8.646;2023-03-20T06:35:46;100926.44;;;13.48;76.22
19736;BME280;32064;49.310;8.646;2023-03-20T06:38:12;100920.81;;;13.53;74.96
19736;BME280;32064;49.310;8.646;2023-03-20T06:40:38;100922.22;;;13.46;76.23
19736;BME280;32064;49.310;8.646;2023-03-20T06:43:04;100912.72;;;13.43;76.28
19736;BME280;32064;49.310;8.646;2023-03-20T06:45:29;100918.22;;;13.40;76.00
19736;BME280;32064;49.310;8.646;2023-03-20T06:47:55;100923.06;;;13.46;74.69
19736;BME280;32064;49.310;8.646;2023-03-20T06:50:20;100921.38;;;13.45;75.15
19736;BME280;32064;49.310;8.646;2023-03-20T06:52:46;100928.84;;;13.52;74.88
19736;BME280;32064;49.310;8.646;2023-03-20T06:55:12;100931.16;;;13.56;75.82
19736;BME280;32064;49.310;8.646;2023-03-20T06:57:38;100934.09;;;13.64;75.64
19736;BME280;32064;49.310;8.646;2023-03-20T07:00:04;100923.50;;;13.64;75.31
19736;BME280;32064;49.310;8.646;2023-03-20T07:02:30;100925.78;;;13.69;74.73
19736;BME280;32064;49.310;8.646;2023-03-20T07:04:56;100938.91;;;13.70;74.66
19736;BME280;32064;49.310;8.646;2023-03-20T07:07:21;100933.50;;;13.72;75.20
19736;BME280;32064;49.310;8.646;2023-03-20T07:09:47;100943.97;;;13.74;74.74
19736;BME280;32064;49.310;8.646;2023-03-20T07:12:14;100947.47;;;13.74;75.45
19736;BME280;32064;49.310;8.646;2023-03-20T07:14:43;100943.34;;;13.70;75.13
19736;BME280;32064;49.310;8.646;2023-03-20T07:17:09;100951.78;;;13.75;74.89
19736;BME280;32064;49.310;8.646;2023-03-20T07:19:35;100950.72;;;13.78;74.68
19736;BME280;32064;49.310;8.646;2023-03-20T07:22:03;100937.13;;;13.71;75.21
19736;BME280;32064;49.310;8.646;2023-03-20T07:24:29;100941.06;;;13.65;75.78
19736;BME280;32064;49.310;8.646;2023-03-20T07:26:56;100941.91;;;13.66;74.40
19736;BME280;32064;49.310;8.646;2023-03-20T07:29:21;100940.81;;;13.68;74.33
19736;BME280;32064;49.310;8.646;2023-03-20T07:31:46;100939.81;;;13.58;75.06
19736;BME280;32064;49.310;8.646;2023-03-20T07:34:12;100937.91;;;13.60;75.16
19736;BME280;32064;49.310;8.646;2023-03-20T07:36:38;100932.75;;;13.59;74.71
19736;BME280;32064;49.310;8.646;2023-03-20T07:39:03;100940.69;;;13.59;74.55
19736;BME280;32064;49.310;8.646;2023-03-20T07:41:29;100940.69;;;13.59;75.06
19736;BME280;32064;49.310;8.646;2023-03-20T07:43:55;100936.72;;;13.64;75.34
19736;BME280;32064;49.310;8.646;2023-03-20T07:46:20;100934.22;;;13.74;74.93
19736;BME280;32064;49.310;8.646;2023-03-20T07:48:46;100938.72;;;13.85;75.07
19736;BME280;32064;49.310;8.646;2023-03-20T07:51:11;100932.22;;;13.89;74.84
19736;BME280;32064;49.310;8.646;2023-03-20T07:53:36;100935.38;;;13.94;74.60
19736;BME280;32064;49.310;8.646;2023-03-20T07:56:02;100930.69;;;13.98;74.48
19736;BME280;32064;49.310;8.646;2023-03-20T07:58:27;100937.31;;;14.03;74.41
19736;BME280;32064;49.310;8.646;2023-03-20T08:00:55;100930.84;;;14.07;74.37
19736;BME280;32064;49.310;8.646;2023-03-20T08:03:21;100933.13;;;14.12;73.98
19736;BME280;32064;49.310;8.646;2023-03-20T08:05:46;100937.81;;;14.08;74.36
19736;BME280;32064;49.310;8.646;2023-03-20T08:08:11;100946.59;;;14.09;74.03
19736;BME280;32064;49.310;8.646;2023-03-20T08:10:37;100951.06;;;14.08;74.34
19736;BME280;32064;49.310;8.646;2023-03-20T08:13:02;100939.38;;;14.11;74.04
19736;BME280;32064;49.310;8.646;2023-03-20T08:15:28;100949.00;;;14.12;73.64
19736;BME280;32064;49.310;8.646;2023-03-20T08:17:53;100950.00;;;14.22;73.93
19736;BME280;32064;49.310;8.646;2023-03-20T08:20:19;100957.09;;;14.22;73.90
19736;BME280;32064;49.310;8.646;2023-03-20T08:22:45;100950.75;;;14.24;73.32
19736;BME280;32064;49.310;8.646;2023-03-20T08:25:11;100957.81;;;14.24;73.83
19736;BME280;32064;49.310;8.646;2023-03-20T08:27:37;100961.91;;;14.17;74.50
19736;BME280;32064;49.310;8.646;2023-03-20T08:30:03;100960.06;;;14.06;74.46
19736;BME280;32064;49.310;8.646;2023-03-20T08:32:29;100962.09;;;14.02;74.97
19736;BME280;32064;49.310;8.646;2023-03-20T08:34:55;100970.03;;;14.02;74.25
19736;BME280;32064;49.310;8.646;2023-03-20T08:37:21;100971.84;;;14.02;74.65
19736;BME280;32064;49.310;8.646;2023-03-20T08:39:46;100965.50;;;14.15;75.04
19736;BME280;32064;49.310;8.646;2023-03-20T08:42:12;100970.56;;;14.19;73.94
19736;BME280;32064;49.310;8.646;2023-03-20T08:44:37;100968.16;;;14.15;73.95
19736;BME280;32064;49.310;8.646;2023-03-20T08:47:03;100968.25;;;14.14;74.47
19736;BME280;32064;49.310;8.646;2023-03-20T08:49:30;100967.19;;;14.17;74.29
19736;BME280;32064;49.310;8.646;2023-03-20T08:51:56;100964.31;;;14.20;74.17
19736;BME280;32064;49.310;8.646;2023-03-20T08:54:21;100977.81;;;14.28;74.59
19736;BME280;32064;49.310;8.646;2023-03-20T08:56:46;100972.16;;;14.32;73.77
19736;BME280;32064;49.310;8.646;2023-03-20T08:59:12;100974.19;;;14.40;73.73
19736;BME280;32064;49.310;8.646;2023-03-20T09:01:37;100976.63;;;14.43;74.37
19736;BME280;32064;49.310;8.646;2023-03-20T09:04:03;100982.88;;;14.42;73.65
19736;BME280;32064;49.310;8.646;2023-03-20T09:06:29;100986.50;;;14.41;73.79
19736;BME280;32064;49.310;8.646;2023-03-20T09:08:55;100990.81;;;14.42;73.79
19736;BME280;32064;49.310;8.646;2023-03-20T09:11:23;100986.03;;;14.47;73.25
19736;BME280;32064;49.310;8.646;2023-03-20T09:13:48;101001.31;;;14.55;73.61
19736;BME280;32064;49.310;8.646;2023-03-20T09:16:14;100996.66;;;14.58;73.05
19736;BME280;32064;49.310;8.646;2023-03-20T09:18:40;101001.31;;;14.55;72.07
19736;BME280;32064;49.310;8.646;2023-03-20T09:21:06;101000.00;;;14.49;73.07
19736;BME280;32064;49.310;8.646;2023-03-20T09:23:31;101000.84;;;14.50;73.15
19736;BME280;32064;49.310;8.646;2023-03-20T09:25:57;101005.94;;;14.53;72.95
19736;BME280;32064;49.310;8.646;2023-03-20T09:28:23;101005.63;;;14.45;73.30
19736;BME280;32064;49.310;8.646;2023-03-20T09:30:49;101002.63;;;14.38;73.19
19736;BME280;32064;49.310;8.646;2023-03-20T09:33:18;101005.72;;;14.43;74.36
19736;BME280;32064;49.310;8.646;2023-03-20T09:35:44;101011.66;;;14.47;73.50
19736;BME280;32064;49.310;8.646;2023-03-20T09:38:09;101016.97;;;14.47;73.24
19736;BME280;32064;49.310;8.646;2023-03-20T09:40:55;101022.34;;;14.45;73.02
19736;BME280;32064;49.310;8.646;2023-03-20T09:43:24;101016.59;;;14.51;73.27
19736;BME280;32064;49.310;8.646;2023-03-20T09:51:58;101024.50;;;14.40;73.20
19736;BME280;32064;49.310;8.646;2023-03-20T09:54:32;101027.06;;;14.42;72.54
19736;BME280;32064;49.310;8.646;2023-03-20T09:57:02;101021.28;;;14.48;72.85
19736;BME280;32064;49.310;8.646;2023-03-20T09:59:29;101031.31;;;14.55;72.31
19736;BME280;32064;49.310;8.646;2023-03-20T10:02:05;101027.47;;;14.71;71.91
19736;BME280;32064;49.310;8.646;2023-03-20T10:04:36;101024.84;;;14.82;71.58
19736;BME280;32064;49.310;8.646;2023-03-20T10:07:05;101020.38;;;14.94;71.65
19736;BME280;32064;49.310;8.646;2023-03-20T10:09:31;101025.34;;;15.10;71.01
19736;BME280;32064;49.310;8.646;2023-03-20T10:12:08;101023.84;;;15.28;71.20
19736;BME280;32064;49.310;8.646;2023-03-20T10:15:26;101019.34;;;15.51;70.04
19736;BME280;32064;49.310;8.646;2023-03-20T10:18:15;101007.69;;;15.97;68.81
19736;BME280;32064;49.310;8.646;2023-03-20T10:21:04;101021.78;;;16.19;69.00
19736;BME280;32064;49.310;8.646;2023-03-20T10:23:35;101023.69;;;16.28;67.83
19736;BME280;32064;49.310;8.646;2023-03-20T10:26:12;101023.28;;;16.74;67.63
19736;BME280;32064;49.310;8.646;2023-03-20T10:42:36;101007.84;;;18.75;59.20
19736;BME280;32064;49.310;8.646;2023-03-20T10:45:06;101010.34;;;19.14;61.20
19736;BME280;32064;49.310;8.646;2023-03-20T10:47:36;101005.56;;;19.18;60.44
19736;BME280;32064;49.310;8.646;2023-03-20T10:50:10;101001.47;;;19.69;57.62
19736;BME280;32064;49.310;8.646;2023-03-20T10:52:40;101002.91;;;20.61;57.69
19736;BME280;32064;49.310;8.646;2023-03-20T10:55:13;101000.94;;;22.79;54.19
19736;BME280;32064;49.310;8.646;2023-03-20T10:57:44;100991.63;;;22.09;53.68
19736;BME280;32064;49.310;8.646;2023-03-20T11:00:23;100998.50;;;22.04;53.04
19736;BME280;32064;49.310;8.646;2023-03-20T11:02:50;100997.25;;;21.41;54.83
19736;BME280;32064;49.310;8.646;2023-03-20T11:05:32;100994.13;;;21.19;54.06
19736;BME280;32064;49.310;8.646;2023-03-20T11:08:07;100996.22;;;20.99;52.69
19736;BME280;32064;49.310;8.646;2023-03-20T11:10:35;101005.34;;;20.54;54.00
19736;BME280;32064;49.310;8.646;2023-03-20T11:13:22;101003.72;;;20.17;52.54
19736;BME280;32064;49.310;8.646;2023-03-20T11:15:51;101004.59;;;20.00;54.08
19736;BME280;32064;49.310;8.646;2023-03-20T11:18:17;101001.94;;;20.26;53.67
19736;BME280;32064;49.310;8.646;2023-03-20T11:20:50;100988.75;;;19.99;53.48
19736;BME280;32064;49.310;8.646;2023-03-20T11:23:23;100991.94;;;19.66;53.15
19736;BME280;32064;49.310;8.646;2023-03-20T11:25:58;100994.63;;;19.39;53.06
19736;BME280;32064;49.310;8.646;2023-03-20T11:28:36;100986.25;;;19.34;54.00
19736;BME280;32064;49.310;8.646;2023-03-20T11:31:06;100992.03;;;19.47;52.84
19736;BME280;32064;49.310;8.646;2023-03-20T11:33:43;100993.78;;;19.38;52.86
19736;BME280;32064;49.310;8.646;2023-03-20T11:36:22;100985.34;;;19.15;51.91
19736;BME280;32064;49.310;8.646;2023-03-20T11:38:49;100975.31;;;19.27;52.87
19736;BME280;32064;49.310;8.646;2023-03-20T11:41:23;100974.44;;;19.54;51.83
19736;BME280;32064;49.310;8.646;2023-03-20T11:43:49;100980.31;;;20.11;51.54
19736;BME280;32064;49.310;8.646;2023-03-20T11:46:15;100973.50;;;20.69;50.59
19736;BME280;32064;49.310;8.646;2023-03-20T11:48:43;100972.16;;;20.39;50.64
19736;BME280;32064;49.310;8.646;2023-03-20T11:51:14;100966.56;;;20.06;49.97
19736;BME280;32064;49.310;8.646;2023-03-20T11:54:02;100969.97;;;19.72;50.04
19736;BME280;32064;49.310;8.646;2023-03-20T11:56:31;100967.03;;;19.48;51.92
19736;BME280;32064;49.310;8.646;2023-03-20T11:59:02;100961.34;;;19.33;51.17
19736;BME280;32064;49.310;8.646;2023-03-20T12:01:42;100952.06;;;19.37;50.45
19736;BME280;32064;49.310;8.646;2023-03-20T12:12:46;100951.84;;;19.31;50.89
19736;BME280;32064;49.310;8.646;2023-03-20T12:15:17;100948.88;;;19.34;51.20
19736;BME280;32064;49.310;8.646;2023-03-20T12:20:40;100940.44;;;19.11;51.45
19736;BME280;32064;49.310;8.646;2023-03-20T12:25:43;100941.91;;;18.77;51.09
19736;BME280;32064;49.310;8.646;2023-03-20T12:28:18;100929.41;;;18.68;51.48
19736;BME280;32064;49.310;8.646;2023-03-20T12:33:33;100930.38;;;19.04;50.79
19736;BME280;32064;49.310;8.646;2023-03-20T12:36:12;100919.13;;;19.28;50.73
19736;BME280;32064;49.310;8.646;2023-03-20T12:38:38;100918.22;;;19.56;50.98
19736;BME280;32064;49.310;8.646;2023-03-20T12:41:25;100912.28;;;19.44;51.17
19736;BME280;32064;49.310;8.646;2023-03-20T12:49:55;100899.69;;;19.18;49.97
19736;BME280;32064;49.310;8.646;2023-03-20T13:01:00;100897.47;;;19.49;48.43
19736;BME280;32064;49.310;8.646;2023-03-20T13:19:47;100871.38;;;19.07;47.52
19736;BME280;32064;49.310;8.646;2023-03-20T13:25:24;100863.59;;;18.96;47.87
19736;BME280;32064;49.310;8.646;2023-03-20T13:28:09;100868.41;;;18.93;47.61
19736;BME280;32064;49.310;8.646;2023-03-20T13:30:44;100868.56;;;18.91;48.28
19736;BME280;32064;49.310;8.646;2023-03-20T13:33:36;100869.59;;;19.08;47.09
19736;BME280;32064;49.310;8.646;2023-03-20T13:39:33;100861.41;;;19.10;47.25
19736;BME280;32064;49.310;8.646;2023-03-20T13:42:01;100863.09;;;19.11;47.76
19736;BME280;32064;49.310;8.646;2023-03-20T13:44:30;100857.16;;;19.17;46.93
19736;BME280;32064;49.310;8.646;2023-03-20T13:47:11;100859.13;;;19.15;47.27
19736;BME280;32064;49.310;8.646;2023-03-20T13:49:42;100852.25;;;19.30;47.65
19736;BME280;32064;49.310;8.646;2023-03-20T13:52:17;100852.59;;;19.45;47.00
19736;BME280;32064;49.310;8.646;2023-03-20T13:54:52;100856.53;;;19.41;46.49
19736;BME280;32064;49.310;8.646;2023-03-20T14:00:38;100844.81;;;19.16;46.54
19736;BME280;32064;49.310;8.646;2023-03-20T14:03:27;100837.94;;;19.13;45.94
19736;BME280;32064;49.310;8.646;2023-03-20T14:05:53;100839.16;;;19.19;47.98
19736;BME280;32064;49.310;8.646;2023-03-20T14:13:35;100825.81;;;18.83;47.93
19736;BME280;32064;49.310;8.646;2023-03-20T14:16:03;100827.84;;;18.71;47.31
19736;BME280;32064;49.310;8.646;2023-03-20T14:18:31;100827.97;;;18.70;46.92
19736;BME280;32064;49.310;8.646;2023-03-20T14:21:02;100833.91;;;18.63;47.71
19736;BME280;32064;49.310;8.646;2023-03-20T14:23:36;100832.22;;;18.62;47.25
19736;BME280;32064;49.310;8.646;2023-03-20T14:26:16;100834.03;;;18.62;48.07
19736;BME280;32064;49.310;8.646;2023-03-20T14:29:21;100834.00;;;18.44;47.51
19736;BME280;32064;49.310;8.646;2023-03-20T14:32:04;100836.25;;;18.49;47.12
19736;BME280;32064;49.310;8.646;2023-03-20T14:37:35;100831.78;;;18.39;47.04
19736;BME280;32064;49.310;8.646;2023-03-20T14:40:20;100830.50;;;18.44;48.15
19736;BME280;32064;49.310;8.646;2023-03-20T14:43:31;100829.28;;;18.38;46.93
19736;BME280;32064;49.310;8.646;2023-03-20T14:46:07;100831.03;;;18.47;45.75
19736;BME280;32064;49.310;8.646;2023-03-20T14:48:52;100828.97;;;18.41;45.32
19736;BME280;32064;49.310;8.646;2023-03-20T14:51:36;100823.66;;;18.41;45.03
19736;BME280;32064;49.310;8.646;2023-03-20T14:56:47;100823.06;;;18.47;45.07
19736;BME280;32064;49.310;8.646;2023-03-20T14:59:14;100823.44;;;18.52;45.46
19736;BME280;32064;49.310;8.646;2023-03-20T15:01:45;100827.44;;;18.66;45.39
19736;BME280;32064;49.310;8.646;2023-03-20T15:07:01;100818.56;;;18.75;44.47
19736;BME280;32064;49.310;8.646;2023-03-20T15:09:30;100822.50;;;18.71;44.55